Terminal Aerodrome Forecast
Issued by NWS Anchorage, AK

Home | Current Version | Previous Version | Text Only | Print | Product List | Glossary On
Versions: 1 2 3 4 5 6 7 8 9 10 11 12 13 14 15 16 17 18 19 20 21 22 23 24 25 26 27 28 29 30 31 32 33 34 35
546
FTAK31 PANC 061140
TAFANC
TAF
PANC 061140Z 0612/0718 VRB05KT P6SM VCFG FEW060
     FM061800 01004KT P6SM VCSH BKN050 OVC080
     FM070300 03006KT P6SM SCT025 BKN050 OVC080
     FM070900 03006KT P6SM VCSH SCT025 OVC050
     FM071500 01004KT P6SM SCT050 BKN080=

USA.gov is the U.S. government's official web portal to all federal, state and local government web resources and services.